Time;durP1;ratioP1;P1;durP2;ratioP2;P2;SDS_P1;SDS_P2;PMS_P1;PMS_P2;Temp;Humidity;BMP_temperature;BMP_pressure;BME280_temperature;BME280_humidity;BME280_pressure;Samples;Min_cycle;Max_cycle;Signal;HPM_P1;HPM_P2
2022/03/31 00:00:30;;;;;;;2.80;0.60;;;5.90;77.20;;;;;;5072604;28;37499;-54
2022/03/31 00:02:57;;;;;;;3.75;0.90;;;5.90;77.80;;;;;;5072701;28;38734;-55
2022/03/31 00:05:26;;;;;;;7.80;1.15;;;5.90;77.70;;;;;;5073526;27;37090;-55
2022/03/31 00:07:55;;;;;;;4.20;1.10;;;5.90;78.80;;;;;;5072293;27;36102;-55
2022/03/31 00:10:24;;;;;;;3.60;0.95;;;5.90;78.90;;;;;;5072878;27;37239;-55
2022/03/31 00:12:52;;;;;;;2.47;0.60;;;5.80;79.70;;;;;;5073788;27;38201;-55
2022/03/31 00:15:20;;;;;;;6.65;1.10;;;5.80;80.10;;;;;;5075859;27;36010;-54
2022/03/31 00:17:48;;;;;;;5.07;1.05;;;5.80;81.20;;;;;;5077434;27;36592;-56
2022/03/31 00:20:15;;;;;;;3.35;0.95;;;5.80;82.10;;;;;;5077070;27;37599;-55
2022/03/31 00:22:44;;;;;;;3.28;0.80;;;5.70;82.30;;;;;;5075670;28;37909;-55
2022/03/31 00:25:12;;;;;;;4.85;0.90;;;5.70;83.30;;;;;;5074794;28;37946;-54
2022/03/31 00:27:40;;;;;;;7.00;1.38;;;5.60;84.10;;;;;;5076585;28;36184;-54
2022/03/31 00:30:10;;;;;;;6.93;0.90;;;5.60;84.90;;;;;;5074680;28;36313;-55
2022/03/31 00:32:38;;;;;;;6.20;0.90;;;5.50;85.70;;;;;;5075384;27;38905;-53
2022/03/31 00:35:08;;;;;;;8.15;0.90;;;5.50;86.20;;;;;;5076200;27;37386;-55
2022/03/31 00:37:35;;;;;;;4.85;0.93;;;5.50;87.00;;;;;;5077231;27;36194;-55
2022/03/31 00:40:05;;;;;;;5.63;1.10;;;5.50;87.30;;;;;;5075746;27;38509;-54
2022/03/31 00:42:38;;;;;;;3.38;0.80;;;5.50;87.80;;;;;;5076469;27;37215;-55
2022/03/31 00:45:11;;;;;;;6.43;1.07;;;5.50;87.60;;;;;;5075891;27;37375;-55
2022/03/31 00:47:38;;;;;;;5.47;0.90;;;5.50;88.30;;;;;;5076277;27;35044;-55
2022/03/31 00:50:06;;;;;;;2.28;0.77;;;5.60;88.50;;;;;;5075045;27;38459;-54
2022/03/31 00:52:34;;;;;;;4.20;0.90;;;5.60;88.30;;;;;;5074101;28;37827;-55
2022/03/31 00:55:01;;;;;;;3.53;1.42;;;5.60;88.20;;;;;;5075969;28;36001;-55
2022/03/31 00:57:31;;;;;;;7.75;0.98;;;5.50;88.20;;;;;;5076149;27;36716;-55
2022/03/31 00:59:58;;;;;;;4.82;0.95;;;5.50;87.40;;;;;;5074750;27;36365;-55
2022/03/31 01:02:30;;;;;;;4.13;1.10;;;5.60;87.80;;;;;;5075650;27;37791;-55
2022/03/31 01:05:00;;;;;;;7.18;0.80;;;5.60;88.40;;;;;;5075837;28;37617;-55
2022/03/31 01:07:27;;;;;;;5.28;0.90;;;5.60;88.00;;;;;;5076163;28;36308;-55
2022/03/31 01:09:54;;;;;;;5.35;0.95;;;5.50;87.50;;;;;;5075865;27;37912;-55
2022/03/31 01:12:22;;;;;;;4.80;0.70;;;5.50;87.60;;;;;;5075867;27;39583;-54
2022/03/31 01:15:05;;;;;;;2.80;0.75;;;5.50;87.50;;;;;;5075256;27;36041;-55
2022/03/31 01:17:33;;;;;;;3.47;0.75;;;5.50;88.20;;;;;;5076193;27;35237;-54
2022/03/31 01:20:00;;;;;;;4.45;1.60;;;5.50;87.80;;;;;;5075969;27;38194;-55
2022/03/31 01:22:30;;;;;;;5.38;0.90;;;5.50;88.00;;;;;;5075164;28;37884;-55
2022/03/31 01:24:59;;;;;;;2.15;0.73;;;5.40;88.30;;;;;;5074297;27;38361;-55
2022/03/31 01:27:27;;;;;;;3.10;0.63;;;5.40;87.70;;;;;;5074341;28;37834;-55
2022/03/31 01:29:54;;;;;;;8.00;0.80;;;5.30;88.20;;;;;;5073842;27;37664;-55
2022/03/31 01:32:22;;;;;;;3.72;0.95;;;5.40;88.60;;;;;;5073086;27;38648;-56
2022/03/31 01:34:51;;;;;;;4.93;0.93;;;5.40;89.60;;;;;;5074700;27;38210;-55
2022/03/31 01:37:18;;;;;;;4.45;1.20;;;5.40;89.60;;;;;;5074571;27;36570;-56
2022/03/31 01:39:45;;;;;;;3.85;0.65;;;5.40;89.50;;;;;;5073702;27;38804;-55
2022/03/31 01:42:14;;;;;;;4.03;1.30;;;5.40;89.80;;;;;;5074004;27;37725;-55
2022/03/31 01:44:41;;;;;;;4.85;1.38;;;5.40;90.00;;;;;;5074337;27;37327;-55
2022/03/31 01:47:09;;;;;;;4.15;1.67;;;5.40;90.20;;;;;;5073775;27;35164;-55
2022/03/31 01:49:38;;;;;;;5.60;1.50;;;5.40;90.50;;;;;;5071194;27;40528;-55
2022/03/31 01:52:06;;;;;;;3.50;1.45;;;5.40;90.90;;;;;;5072521;27;37312;-55
2022/03/31 01:54:34;;;;;;;7.70;1.98;;;5.40;91.10;;;;;;5072508;27;37205;-55
2022/03/31 01:57:02;;;;;;;5.78;2.35;;;5.40;91.40;;;;;;5072830;27;36520;-54
2022/03/31 01:59:38;;;;;;;11.77;2.85;;;5.30;91.90;;;;;;5073269;27;38572;-55
2022/03/31 02:02:06;;;;;;;5.53;2.10;;;5.30;92.40;;;;;;5073382;28;36253;-55
2022/03/31 02:04:33;;;;;;;8.15;2.20;;;5.30;92.60;;;;;;5074346;28;37473;-55
2022/03/31 02:07:00;;;;;;;6.38;1.98;;;5.30;92.80;;;;;;5073415;28;37459;-55
2022/03/31 02:09:28;;;;;;;5.55;2.50;;;5.20;93.20;;;;;;5074251;27;37776;-54
2022/03/31 02:11:57;;;;;;;5.00;2.25;;;5.20;93.50;;;;;;5072110;27;38986;-55
2022/03/31 02:14:26;;;;;;;4.22;2.20;;;5.20;93.70;;;;;;5074364;27;36118;-56
2022/03/31 02:16:56;;;;;;;7.22;2.47;;;5.20;93.90;;;;;;5073731;27;35349;-55
2022/03/31 02:19:25;;;;;;;4.65;2.35;;;5.10;94.30;;;;;;5072931;27;37579;-55
2022/03/31 02:21:55;;;;;;;5.65;2.60;;;5.20;94.60;;;;;;5073186;27;37834;-55
2022/03/31 02:24:22;;;;;;;5.07;2.50;;;5.20;94.80;;;;;;5073582;28;37126;-54
2022/03/31 02:26:49;;;;;;;5.32;2.75;;;5.20;95.00;;;;;;5033023;27;1152303;-54
2022/03/31 02:29:18;;;;;;;9.15;2.90;;;5.20;95.10;;;;;;5073853;27;37771;-55
2022/03/31 02:31:46;;;;;;;7.65;2.70;;;5.20;95.30;;;;;;5073527;27;38700;-55
2022/03/31 02:34:15;;;;;;;8.85;4.28;;;5.20;95.70;;;;;;5074231;27;37534;-54
2022/03/31 02:36:43;;;;;;;7.43;3.00;;;5.20;96.20;;;;;;5072203;27;36790;-55
2022/03/31 02:39:12;;;;;;;7.60;3.03;;;5.20;96.50;;;;;;5074819;28;37613;-55
2022/03/31 02:41:40;;;;;;;7.10;3.15;;;5.20;96.70;;;;;;5073962;27;37517;-54
2022/03/31 02:44:08;;;;;;;8.40;3.47;;;5.30;97.00;;;;;;5073738;28;38241;-54
2022/03/31 02:46:36;;;;;;;7.53;3.80;;;5.20;97.20;;;;;;5075045;27;35215;-55
2022/03/31 02:49:04;;;;;;;7.57;3.70;;;5.20;97.60;;;;;;5076123;27;36143;-54
2022/03/31 02:51:32;;;;;;;7.90;4.53;;;5.20;97.70;;;;;;5074832;27;38406;-54
2022/03/31 02:56:45;;;;;;;6.75;4.55;;;5.10;98.10;;;;;;5074573;28;38410;-54
2022/03/31 02:59:12;;;;;;;9.65;4.72;;;5.10;98.40;;;;;;5074961;27;36245;-55
2022/03/31 03:01:41;;;;;;;8.30;4.75;;;5.00;98.50;;;;;;5073942;27;37556;-55
2022/03/31 03:04:08;;;;;;;9.20;5.25;;;5.00;98.70;;;;;;5074817;27;37567;-55
2022/03/31 03:06:37;;;;;;;9.07;4.95;;;5.00;99.00;;;;;;5073270;27;37333;-55
2022/03/31 03:09:05;;;;;;;9.13;5.13;;;4.90;99.00;;;;;;5074522;28;39531;-55
2022/03/31 03:11:32;;;;;;;10.07;5.18;;;5.00;99.10;;;;;;5073628;27;37491;-56
2022/03/31 03:14:00;;;;;;;8.18;4.35;;;5.00;99.50;;;;;;5072467;28;36925;-55
2022/03/31 03:16:27;;;;;;;7.03;4.05;;;4.90;99.40;;;;;;5072882;27;36436;-53
2022/03/31 03:18:55;;;;;;;7.05;3.40;;;4.90;99.50;;;;;;5073736;27;37170;-54
2022/03/31 03:21:22;;;;;;;6.85;3.13;;;4.90;99.50;;;;;;5072032;27;37143;-55
2022/03/31 03:23:51;;;;;;;7.00;2.65;;;4.80;99.70;;;;;;5072214;27;37515;-53
2022/03/31 03:26:18;;;;;;;5.75;2.40;;;4.70;99.90;;;;;;5074019;28;36504;-55
2022/03/31 03:28:46;;;;;;;4.90;2.35;;;4.70;99.90;;;;;;5073480;28;37675;-54
2022/03/31 03:31:13;;;;;;;5.43;2.20;;;4.70;99.90;;;;;;5073474;27;38799;-55
2022/03/31 03:33:41;;;;;;;5.05;2.35;;;4.70;99.90;;;;;;5073334;28;36476;-55
2022/03/31 03:36:12;;;;;;;5.13;1.52;;;4.70;99.90;;;;;;5074348;27;35385;-54
2022/03/31 03:38:39;;;;;;;2.40;1.40;;;4.60;99.90;;;;;;5073844;27;37408;-55
2022/03/31 03:41:10;;;;;;;2.05;1.05;;;4.60;99.90;;;;;;5074249;27;39565;-55
2022/03/31 03:43:38;;;;;;;3.35;0.98;;;4.60;99.90;;;;;;5073503;27;37301;-54
2022/03/31 03:46:05;;;;;;;1.60;1.10;;;4.50;99.90;;;;;;5073467;27;36293;-54
2022/03/31 03:48:33;;;;;;;1.58;1.00;;;4.50;99.90;;;;;;5073361;27;37069;-54
2022/03/31 03:51:00;;;;;;;4.15;1.50;;;4.50;99.90;;;;;;5071497;27;37885;-53
2022/03/31 03:53:28;;;;;;;2.63;1.30;;;4.40;99.90;;;;;;5073702;27;35897;-55
2022/03/31 03:55:55;;;;;;;2.70;1.48;;;4.40;99.90;;;;;;5072832;27;35892;-54
2022/03/31 03:58:24;;;;;;;2.97;1.50;;;4.40;99.90;;;;;;5074770;28;39546;-54
2022/03/31 04:00:51;;;;;;;4.10;2.20;;;4.40;99.90;;;;;;5073172;27;38423;-55
2022/03/31 04:03:18;;;;;;;5.72;3.42;;;4.40;99.90;;;;;;5073181;27;36184;-54
2022/03/31 04:05:46;;;;;;;5.35;2.70;;;4.40;99.90;;;;;;5072564;27;36576;-55
2022/03/31 04:08:15;;;;;;;4.18;2.53;;;4.30;99.90;;;;;;5073899;28;37601;-54
2022/03/31 04:10:42;;;;;;;4.32;2.47;;;4.30;99.90;;;;;;5073401;27;38916;-54
2022/03/31 04:13:11;;;;;;;5.13;2.45;;;4.20;99.90;;;;;;5073750;27;38185;-54
2022/03/31 04:15:40;;;;;;;3.42;2.03;;;4.10;99.90;;;;;;5073096;27;36600;-53
2022/03/31 04:18:08;;;;;;;6.53;2.17;;;4.10;99.90;;;;;;5072557;27;37660;-55
2022/03/31 04:20:35;;;;;;;4.43;2.08;;;4.00;99.90;;;;;;5073814;28;37564;-54
2022/03/31 04:23:03;;;;;;;3.83;2.13;;;3.90;99.90;;;;;;5072877;27;35940;-54
2022/03/31 04:25:30;;;;;;;4.85;2.00;;;4.30;99.90;;;;;;5073408;27;36247;-54
2022/03/31 04:27:58;;;;;;;5.50;2.17;;;3.90;99.90;;;;;;5072688;28;37609;-55
2022/03/31 04:30:26;;;;;;;5.47;2.08;;;3.90;99.90;;;;;;5073151;27;37981;-54
2022/03/31 04:32:55;;;;;;;4.35;2.20;;;3.90;99.90;;;;;;5072383;28;36088;-54
2022/03/31 04:35:22;;;;;;;4.40;1.67;;;3.80;99.90;;;;;;5072547;27;36825;-54
2022/03/31 04:37:50;;;;;;;4.07;2.00;;;3.90;99.90;;;;;;5072897;27;37720;-52
2022/03/31 04:40:18;;;;;;;7.18;2.33;;;3.80;99.90;;;;;;5071775;28;37881;-53
2022/03/31 04:42:46;;;;;;;6.05;2.65;;;3.80;99.90;;;;;;5072193;27;36159;-54
2022/03/31 04:45:13;;;;;;;6.18;3.13;;;3.80;99.90;;;;;;5071270;27;35341;-54
2022/03/31 04:47:41;;;;;;;6.55;3.05;;;3.80;99.90;;;;;;5071819;27;37360;-54
2022/03/31 04:50:10;;;;;;;5.85;2.78;;;3.80;99.90;;;;;;5072633;27;37840;-54
2022/03/31 04:52:37;;;;;;;5.05;2.40;;;3.80;99.90;;;;;;5072205;27;37576;-53
2022/03/31 04:55:05;;;;;;;4.75;2.30;;;3.80;99.90;;;;;;5071081;27;35230;-53
2022/03/31 04:57:33;;;;;;;6.38;2.80;;;3.80;99.90;;;;;;5071900;28;36082;-57
2022/03/31 05:00:00;;;;;;;5.45;2.55;;;3.80;99.90;;;;;;5075437;27;38749;-54
2022/03/31 05:02:27;;;;;;;7.03;2.90;;;3.80;99.90;;;;;;5075577;28;37955;-53
2022/03/31 05:04:55;;;;;;;5.20;2.30;;;3.70;99.90;;;;;;5076220;27;39328;-54
2022/03/31 05:07:24;;;;;;;5.65;2.33;;;3.70;99.90;;;;;;5075013;27;37530;-53
2022/03/31 05:09:51;;;;;;;4.70;2.40;;;3.70;99.90;;;;;;5076182;27;37471;-54
2022/03/31 05:12:19;;;;;;;4.82;2.00;;;3.80;99.90;;;;;;5075029;28;38711;-54
2022/03/31 05:14:46;;;;;;;3.47;1.77;;;3.80;99.90;;;;;;5073420;28;35214;-54
2022/03/31 05:17:13;;;;;;;4.57;2.10;;;3.80;99.90;;;;;;5076324;27;37516;-54
2022/03/31 05:19:41;;;;;;;4.75;2.47;;;3.80;99.90;;;;;;5076043;27;36299;-54
2022/03/31 05:22:08;;;;;;;6.13;2.00;;;3.90;99.90;;;;;;5074856;27;37506;-54
2022/03/31 05:24:37;;;;;;;5.47;1.95;;;3.90;99.90;;;;;;5075050;27;36150;-54
2022/03/31 05:27:05;;;;;;;3.90;1.73;;;3.90;99.90;;;;;;5073538;27;37431;-54
2022/03/31 05:29:32;;;;;;;5.65;2.03;;;4.50;99.90;;;;;;5073775;27;39238;-54
2022/03/31 05:32:00;;;;;;;4.40;1.70;;;4.00;99.90;;;;;;5073065;27;36159;-54
2022/03/31 05:34:27;;;;;;;5.03;1.70;;;4.00;99.90;;;;;;5074602;27;39489;-54
2022/03/31 05:36:54;;;;;;;4.70;2.17;;;4.10;99.90;;;;;;5073828;28;37451;-54
2022/03/31 05:39:22;;;;;;;4.78;1.90;;;4.10;99.90;;;;;;5074665;27;38111;-55
2022/03/31 05:41:50;;;;;;;3.33;1.90;;;4.10;99.90;;;;;;5073800;27;38087;-54
2022/03/31 05:44:18;;;;;;;3.50;2.00;;;4.10;99.90;;;;;;5073648;27;36125;-54
2022/03/31 05:46:46;;;;;;;3.70;2.13;;;4.10;99.90;;;;;;5073121;27;37370;-53
2022/03/31 05:49:13;;;;;;;4.88;2.42;;;4.10;99.90;;;;;;5074739;27;36384;-53
2022/03/31 05:51:40;;;;;;;4.15;2.53;;;4.10;99.90;;;;;;5073273;27;38742;-55
2022/03/31 05:54:08;;;;;;;3.33;2.08;;;4.10;99.90;;;;;;5073186;27;37729;-54
2022/03/31 05:56:36;;;;;;;5.60;2.33;;;4.10;99.90;;;;;;5074460;27;36205;-54
2022/03/31 05:59:05;;;;;;;3.88;2.30;;;4.10;99.90;;;;;;5076416;28;37901;-55
2022/03/31 06:01:32;;;;;;;4.32;2.63;;;4.20;99.90;;;;;;5072611;27;36920;-54
2022/03/31 06:04:00;;;;;;;4.57;2.78;;;4.10;99.90;;;;;;5073750;27;36942;-55
2022/03/31 06:06:27;;;;;;;5.75;2.65;;;4.10;99.90;;;;;;5072203;27;37547;-54
2022/03/31 06:08:54;;;;;;;4.10;2.47;;;4.20;99.90;;;;;;5072658;27;37711;-55
2022/03/31 06:11:22;;;;;;;5.22;2.83;;;4.20;99.90;;;;;;5070934;27;37187;-53
2022/03/31 06:13:49;;;;;;;4.40;2.72;;;4.20;99.90;;;;;;5073884;27;35190;-55
2022/03/31 06:16:18;;;;;;;5.18;2.60;;;4.20;99.90;;;;;;5074353;27;37682;-55
2022/03/31 06:18:45;;;;;;;5.03;2.95;;;4.20;99.90;;;;;;5073133;27;37490;-53
2022/03/31 06:21:13;;;;;;;4.75;3.03;;;4.20;99.90;;;;;;5073071;27;38616;-55
2022/03/31 06:23:40;;;;;;;4.97;3.05;;;4.20;99.90;;;;;;5073832;27;36476;-54
2022/03/31 06:26:08;;;;;;;4.57;2.83;;;4.20;99.90;;;;;;5073809;27;37106;-53
2022/03/31 06:28:36;;;;;;;5.15;3.33;;;4.20;99.90;;;;;;5074229;28;37783;-54
2022/03/31 06:31:03;;;;;;;5.32;3.53;;;4.10;99.90;;;;;;5073358;28;38341;-55
2022/03/31 06:33:32;;;;;;;4.45;3.13;;;4.10;99.90;;;;;;5073204;27;36859;-54
2022/03/31 06:35:59;;;;;;;6.57;3.65;;;4.10;99.90;;;;;;5073620;28;37413;-54
2022/03/31 06:38:27;;;;;;;5.20;3.38;;;4.10;99.90;;;;;;5073087;28;37224;-53
2022/03/31 06:43:43;;;;;;;5.25;3.25;;;4.10;99.90;;;;;;5066867;28;36991;-54
2022/03/31 06:46:11;;;;;;;5.18;3.58;;;4.00;99.90;;;;;;5074373;28;37997;-53
2022/03/31 06:48:41;;;;;;;5.47;3.58;;;4.00;99.90;;;;;;5075124;27;37603;-54
2022/03/31 06:51:10;;;;;;;5.65;3.92;;;4.10;99.90;;;;;;5073373;27;36020;-53
2022/03/31 06:53:41;;;;;;;5.45;3.65;;;4.00;99.90;;;;;;5074397;27;35235;-53
2022/03/31 06:56:09;;;;;;;5.85;3.90;;;4.00;99.90;;;;;;5074958;27;37154;-54
2022/03/31 06:58:37;;;;;;;5.72;3.72;;;4.10;99.90;;;;;;5073488;28;37364;-53
2022/03/31 07:01:05;;;;;;;5.43;3.83;;;4.10;99.90;;;;;;5073693;28;39019;-54
2022/03/31 07:03:32;;;;;;;5.47;4.03;;;4.10;99.90;;;;;;5074172;27;35297;-54
2022/03/31 07:06:01;;;;;;;6.07;4.38;;;4.00;99.90;;;;;;5073706;27;38784;-54
2022/03/31 07:08:31;;;;;;;7.00;4.20;;;3.90;99.90;;;;;;5074828;28;37402;-53
2022/03/31 07:10:59;;;;;;;5.97;4.07;;;4.10;99.90;;;;;;5070652;27;37362;-54
2022/03/31 07:13:26;;;;;;;6.70;4.20;;;4.10;99.90;;;;;;5073614;27;35288;-55
2022/03/31 07:15:54;;;;;;;8.02;4.43;;;4.20;99.90;;;;;;5074866;27;39946;-53
2022/03/31 07:18:21;;;;;;;6.20;4.40;;;4.20;99.90;;;;;;5074063;27;39706;-55
2022/03/31 07:20:49;;;;;;;5.75;4.05;;;4.20;99.90;;;;;;5074219;28;36747;-53
2022/03/31 07:23:20;;;;;;;5.95;4.38;;;4.30;99.90;;;;;;5074048;28;37031;-54
2022/03/31 07:25:48;;;;;;;7.55;5.25;;;4.30;99.90;;;;;;5073477;27;37150;-55
2022/03/31 07:28:15;;;;;;;6.35;4.55;;;4.20;99.90;;;;;;5073497;27;38910;-55
2022/03/31 07:30:43;;;;;;;7.95;5.05;;;4.20;99.90;;;;;;5073049;27;37361;-53
2022/03/31 07:33:10;;;;;;;6.80;4.88;;;4.30;99.90;;;;;;5073577;27;36348;-54
2022/03/31 07:35:39;;;;;;;7.63;4.85;;;4.30;99.90;;;;;;5073096;27;36127;-55
2022/03/31 07:38:08;;;;;;;6.95;5.30;;;4.30;99.90;;;;;;5073352;28;38164;-54
2022/03/31 07:40:39;;;;;;;6.55;4.65;;;4.30;99.90;;;;;;5074040;27;37120;-55
2022/03/31 07:43:07;;;;;;;6.80;4.25;;;4.30;99.90;;;;;;5074163;28;37014;-54
2022/03/31 07:45:36;;;;;;;6.70;4.90;;;4.50;99.90;;;;;;5073411;27;36326;-54
2022/03/31 07:48:04;;;;;;;6.85;4.80;;;4.30;99.90;;;;;;5073660;27;38656;-55
2022/03/31 07:50:34;;;;;;;7.03;4.68;;;4.30;99.90;;;;;;5075045;27;38200;-55
2022/03/31 07:53:01;;;;;;;6.85;5.15;;;4.30;99.90;;;;;;5073180;27;37637;-55
2022/03/31 07:55:29;;;;;;;6.50;4.30;;;4.30;99.90;;;;;;5073258;27;36208;-54
2022/03/31 07:57:57;;;;;;;6.15;4.30;;;4.30;99.90;;;;;;5074265;27;37956;-54
2022/03/31 08:00:25;;;;;;;5.45;3.90;;;4.30;99.90;;;;;;5072222;27;37493;-54
2022/03/31 08:02:53;;;;;;;6.82;3.80;;;4.20;99.90;;;;;;5074189;27;36494;-55
2022/03/31 08:05:22;;;;;;;6.07;4.43;;;4.20;99.90;;;;;;5072432;27;38234;-55
2022/03/31 08:07:50;;;;;;;5.90;4.13;;;4.30;99.90;;;;;;5074229;27;39713;-54
2022/03/31 08:10:18;;;;;;;6.30;4.55;;;4.00;99.90;;;;;;5072117;27;37427;-55
2022/03/31 08:12:46;;;;;;;8.40;5.00;;;4.20;99.90;;;;;;5073361;28;37203;-55
2022/03/31 08:15:17;;;;;;;6.82;4.13;;;4.20;99.90;;;;;;5072321;27;36127;-54
2022/03/31 08:17:46;;;;;;;5.65;4.10;;;4.20;99.90;;;;;;5072550;28;38169;-53
2022/03/31 08:20:15;;;;;;;6.25;4.55;;;4.10;99.90;;;;;;5072091;27;37398;-55
2022/03/31 08:22:43;;;;;;;7.15;5.30;;;4.10;99.90;;;;;;5073267;27;35355;-55
2022/03/31 08:25:11;;;;;;;7.30;5.35;;;4.10;99.90;;;;;;5071798;27;37191;-54
2022/03/31 08:27:39;;;;;;;9.23;5.38;;;4.10;99.90;;;;;;5072026;28;37911;-54
2022/03/31 08:30:09;;;;;;;8.70;6.15;;;4.00;99.90;;;;;;5070149;27;38434;-55
2022/03/31 08:32:39;;;;;;;7.75;5.65;;;4.00;99.90;;;;;;5070702;28;38068;-54
2022/03/31 08:35:08;;;;;;;6.43;4.53;;;3.90;99.90;;;;;;5073347;27;37520;-55
2022/03/31 08:37:35;;;;;;;9.30;5.50;;;3.90;99.90;;;;;;5075494;27;38033;-54
2022/03/31 08:40:04;;;;;;;8.52;5.45;;;3.90;99.90;;;;;;5075987;27;37470;-54
2022/03/31 08:42:32;;;;;;;7.82;4.85;;;3.90;99.90;;;;;;5075729;27;36687;-52
2022/03/31 08:45:01;;;;;;;8.05;5.28;;;3.90;99.90;;;;;;5076006;27;37351;-53
2022/03/31 08:47:29;;;;;;;7.70;5.60;;;3.90;99.90;;;;;;5076445;28;38112;-54
2022/03/31 08:49:58;;;;;;;8.65;5.95;;;3.80;99.90;;;;;;5074701;27;36227;-54
2022/03/31 08:52:25;;;;;;;8.95;5.25;;;3.80;99.90;;;;;;5075514;28;36425;-54
2022/03/31 08:54:53;;;;;;;8.70;5.95;;;3.80;99.90;;;;;;5075459;27;37154;-55
2022/03/31 08:57:20;;;;;;;9.63;6.45;;;3.80;99.90;;;;;;5074227;27;39673;-54
2022/03/31 08:59:48;;;;;;;10.05;7.18;;;3.80;99.90;;;;;;5073394;27;37239;-55
2022/03/31 09:02:26;;;;;;;9.80;7.35;;;3.80;99.90;;;;;;5073252;27;35058;-55
2022/03/31 09:05:06;;;;;;;9.88;6.65;;;3.80;99.90;;;;;;5076022;28;37537;-55
2022/03/31 09:07:33;;;;;;;10.52;7.05;;;3.80;99.90;;;;;;5074833;28;38013;-54
2022/03/31 09:10:01;;;;;;;10.18;7.00;;;3.80;99.90;;;;;;5075349;27;37174;-54
2022/03/31 09:12:37;;;;;;;9.48;6.57;;;3.70;99.90;;;;;;5073944;28;37233;-54
2022/03/31 09:15:12;;;;;;;10.27;6.63;;;3.60;99.90;;;;;;5074009;28;39861;-55
2022/03/31 09:17:40;;;;;;;8.18;5.70;;;3.60;99.90;;;;;;5072070;27;37350;-54
2022/03/31 09:20:10;;;;;;;8.85;5.95;;;3.60;99.90;;;;;;5073759;28;37451;-54
2022/03/31 09:22:48;;;;;;;8.55;5.57;;;3.50;99.90;;;;;;5073138;27;34641;-54
2022/03/31 09:25:25;;;;;;;7.95;5.10;;;3.50;99.90;;;;;;5074337;27;38023;-55
2022/03/31 09:27:53;;;;;;;8.13;4.95;;;3.50;99.90;;;;;;5074531;27;38618;-54
2022/03/31 09:30:22;;;;;;;8.40;5.05;;;3.50;99.90;;;;;;5075265;28;36278;-55
2022/03/31 09:32:51;;;;;;;6.45;4.38;;;3.50;99.90;;;;;;5076297;27;35195;-54
2022/03/31 09:35:23;;;;;;;6.75;4.30;;;3.50;99.90;;;;;;5074979;28;38780;-54
2022/03/31 09:37:51;;;;;;;6.50;3.88;;;3.50;99.90;;;;;;5076531;27;37744;-54
2022/03/31 09:40:20;;;;;;;6.05;3.50;;;3.40;99.90;;;;;;5076200;28;38614;-53
2022/03/31 09:42:57;;;;;;;7.18;3.85;;;3.40;99.90;;;;;;5076273;28;36499;-55
2022/03/31 09:45:25;;;;;;;5.30;3.30;;;3.30;99.90;;;;;;5074776;27;38001;-54
2022/03/31 09:47:52;;;;;;;5.93;3.70;;;3.20;99.90;;;;;;5076070;28;36609;-53
2022/03/31 09:50:32;;;;;;;5.82;3.83;;;3.10;99.90;;;;;;5069012;28;38490;-54
2022/03/31 09:53:00;;;;;;;5.28;3.33;;;3.00;99.90;;;;;;5068380;27;37411;-54
2022/03/31 09:55:28;;;;;;;5.30;3.20;;;3.00;99.90;;;;;;5070379;28;38924;-53
2022/03/31 09:57:57;;;;;;;4.95;3.05;;;2.90;99.90;;;;;;5071064;27;39346;-53
2022/03/31 10:00:25;;;;;;;6.30;4.00;;;2.90;99.90;;;;;;5071275;28;37290;-54
2022/03/31 10:02:53;;;;;;;6.15;3.75;;;2.80;99.90;;;;;;5072906;28;37278;-54
2022/03/31 10:05:23;;;;;;;6.30;4.13;;;2.80;99.90;;;;;;5072995;27;36480;-55
2022/03/31 10:07:52;;;;;;;6.63;4.15;;;2.80;99.90;;;;;;5071629;27;39119;-55
2022/03/31 10:10:19;;;;;;;6.78;4.28;;;2.70;99.90;;;;;;5071807;27;38929;-55
2022/03/31 10:12:54;;;;;;;7.03;4.45;;;2.70;99.90;;;;;;5071905;28;36397;-55
2022/03/31 10:15:29;;;;;;;7.18;4.50;;;2.70;99.90;;;;;;5072479;28;37569;-55
2022/03/31 10:17:57;;;;;;;8.15;4.55;;;2.70;99.90;;;;;;5072708;27;39244;-54
2022/03/31 10:20:26;;;;;;;6.25;3.90;;;2.60;99.90;;;;;;5070373;27;37657;-54
2022/03/31 10:25:41;;;;;;;7.72;4.40;;;2.60;99.90;;;;;;5071541;28;38402;-54
2022/03/31 10:28:10;;;;;;;8.45;4.88;;;2.50;99.90;;;;;;5070269;27;38887;-54
2022/03/31 10:30:37;;;;;;;6.05;3.58;;;2.60;99.90;;;;;;5070602;27;38692;-55
2022/03/31 10:33:08;;;;;;;5.82;3.70;;;2.50;99.90;;;;;;5071349;28;36452;-54
2022/03/31 10:35:38;;;;;;;6.95;3.70;;;2.60;99.90;;;;;;5071504;27;37578;-54
2022/03/31 10:38:14;;;;;;;6.50;3.95;;;2.40;99.90;;;;;;5071326;27;38009;-54
2022/03/31 10:40:43;;;;;;;5.68;3.40;;;2.50;99.90;;;;;;5068605;27;37352;-55
2022/03/31 10:43:22;;;;;;;7.13;3.88;;;2.50;99.90;;;;;;5069978;28;35840;-54
2022/03/31 10:45:51;;;;;;;6.07;3.60;;;2.40;99.90;;;;;;5068765;27;37685;-54
2022/03/31 10:48:21;;;;;;;6.20;3.25;;;2.50;99.90;;;;;;5061878;27;36931;-54
2022/03/31 10:51:02;;;;;;;5.82;3.30;;;2.50;99.90;;;;;;5067035;27;36177;-55
2022/03/31 10:53:30;;;;;;;5.28;3.28;;;2.50;99.90;;;;;;5064396;28;35249;-56
2022/03/31 10:55:58;;;;;;;6.80;3.15;;;2.50;99.90;;;;;;5068876;27;37436;-53
2022/03/31 10:58:28;;;;;;;6.05;3.72;;;2.50;99.90;;;;;;5071186;28;36346;-54
2022/03/31 11:00:56;;;;;;;9.75;3.55;;;2.50;99.90;;;;;;5069708;27;37862;-54
2022/03/31 11:03:24;;;;;;;6.18;3.85;;;2.50;99.90;;;;;;5066643;28;36669;-54
2022/03/31 11:05:53;;;;;;;7.20;3.75;;;2.50;99.90;;;;;;5071221;28;36391;-56
2022/03/31 11:08:20;;;;;;;5.72;3.50;;;2.40;99.90;;;;;;5070268;28;37557;-55
2022/03/31 11:10:50;;;;;;;5.40;3.22;;;2.50;99.90;;;;;;5069726;28;37850;-55
2022/03/31 11:13:20;;;;;;;5.43;3.20;;;2.50;99.90;;;;;;5070728;28;36651;-53
2022/03/31 11:15:56;;;;;;;6.68;3.53;;;2.50;99.90;;;;;;5069788;28;37854;-55
2022/03/31 11:18:24;;;;;;;4.85;2.92;;;2.50;99.90;;;;;;5070610;28;38757;-54
2022/03/31 11:20:57;;;;;;;5.65;3.15;;;2.60;99.90;;;;;;5070128;27;37183;-56
2022/03/31 11:23:26;;;;;;;5.85;3.40;;;2.50;99.90;;;;;;5069279;27;37797;-55
2022/03/31 11:25:53;;;;;;;6.22;3.63;;;2.50;99.90;;;;;;5068731;27;39806;-55
2022/03/31 11:28:21;;;;;;;5.80;3.50;;;2.50;99.90;;;;;;5070002;28;38152;-55
2022/03/31 11:30:49;;;;;;;5.70;3.63;;;2.50;99.90;;;;;;5069469;28;36207;-54
2022/03/31 11:33:17;;;;;;;5.72;3.28;;;2.40;99.90;;;;;;5069351;28;36859;-54
2022/03/31 11:35:44;;;;;;;5.63;3.38;;;2.40;99.90;;;;;;5070115;27;37329;-49
2022/03/31 11:38:17;;;;;;;6.50;3.55;;;2.40;99.90;;;;;;5069556;28;38392;-55
2022/03/31 11:40:46;;;;;;;9.73;4.07;;;2.30;99.90;;;;;;5068000;27;37248;-55
2022/03/31 11:43:15;;;;;;;5.65;3.28;;;2.30;99.90;;;;;;5069014;28;35120;-49
2022/03/31 11:45:46;;;;;;;6.85;3.45;;;2.20;99.90;;;;;;5068197;28;37980;-54
2022/03/31 11:48:16;;;;;;;5.90;3.30;;;2.20;99.90;;;;;;5069236;27;37332;-54
2022/03/31 11:50:51;;;;;;;6.10;3.75;;;2.10;99.90;;;;;;5069568;27;37356;-49
2022/03/31 11:53:22;;;;;;;5.53;3.20;;;2.10;99.90;;;;;;5069980;27;36535;-50
2022/03/31 11:55:57;;;;;;;5.40;3.05;;;2.10;99.90;;;;;;5068898;27;38126;-55
2022/03/31 11:58:24;;;;;;;5.10;2.97;;;2.10;99.90;;;;;;5070089;27;37800;-56
2022/03/31 12:00:52;;;;;;;5.63;3.50;;;2.00;99.90;;;;;;5067433;27;36182;-55
2022/03/31 12:03:20;;;;;;;4.70;2.60;;;2.10;99.90;;;;;;5069587;27;35194;-55
2022/03/31 12:05:57;;;;;;;5.80;3.15;;;2.10;99.90;;;;;;5069757;27;37844;-56
2022/03/31 12:08:27;;;;;;;6.93;3.45;;;2.00;99.90;;;;;;5071415;27;39256;-54
2022/03/31 12:10:55;;;;;;;5.32;3.08;;;2.10;99.90;;;;;;5073204;27;36166;-56
2022/03/31 12:13:24;;;;;;;4.78;2.60;;;2.00;99.90;;;;;;5073858;27;36377;-55
2022/03/31 12:16:02;;;;;;;5.35;3.10;;;2.00;99.90;;;;;;5073627;27;36215;-55
2022/03/31 12:18:30;;;;;;;7.03;3.70;;;2.00;99.90;;;;;;5072518;28;37650;-56
2022/03/31 12:21:00;;;;;;;6.20;3.70;;;2.00;99.90;;;;;;5071314;28;37227;-56
2022/03/31 12:23:29;;;;;;;6.70;3.80;;;2.00;99.90;;;;;;5071598;27;37026;-57
2022/03/31 12:25:57;;;;;;;6.93;4.03;;;2.00;99.90;;;;;;5071630;27;37678;-50
2022/03/31 12:28:25;;;;;;;6.57;3.92;;;2.00;99.90;;;;;;5066537;27;37441;-48
2022/03/31 12:30:54;;;;;;;7.50;3.97;;;2.00;99.90;;;;;;5071936;27;37455;-49
2022/03/31 12:33:24;;;;;;;8.43;4.30;;;2.00;99.90;;;;;;5071146;27;36500;-49
2022/03/31 12:36:00;;;;;;;7.80;4.57;;;2.00;99.90;;;;;;5072854;27;36201;-49
2022/03/31 12:38:40;;;;;;;5.53;3.33;;;2.00;99.90;;;;;;5073570;27;38513;-49
2022/03/31 12:41:13;;;;;;;6.60;4.30;;;2.10;99.90;;;;;;5071648;27;38156;-47
2022/03/31 12:43:41;;;;;;;9.52;4.00;;;2.10;99.90;;;;;;5072219;27;35225;-50
2022/03/31 12:46:15;;;;;;;7.38;4.38;;;2.10;99.90;;;;;;5072154;27;37662;-50
2022/03/31 12:48:54;;;;;;;6.90;4.72;;;2.10;99.90;;;;;;5072120;27;37439;-55
2022/03/31 12:51:22;;;;;;;7.72;4.28;;;2.10;99.90;;;;;;5071905;28;37509;-56
2022/03/31 12:53:51;;;;;;;8.52;5.10;;;2.10;99.90;;;;;;5073587;27;37441;-55
2022/03/31 12:56:28;;;;;;;7.60;5.20;;;2.10;99.90;;;;;;5072076;28;40849;-56
2022/03/31 12:58:57;;;;;;;7.60;5.22;;;2.10;99.90;;;;;;5072401;28;37920;-56
2022/03/31 13:01:26;;;;;;;8.98;4.60;;;2.10;99.90;;;;;;5071830;28;36930;-56
2022/03/31 13:03:54;;;;;;;7.18;4.60;;;2.10;99.90;;;;;;5071152;27;36218;-56
2022/03/31 13:06:22;;;;;;;7.25;4.93;;;2.00;99.90;;;;;;5073385;27;35953;-56
2022/03/31 13:08:51;;;;;;;6.82;4.80;;;2.10;99.90;;;;;;5071478;27;37559;-55
2022/03/31 13:11:19;;;;;;;9.13;5.68;;;2.10;99.90;;;;;;5072581;27;35975;-53
2022/03/31 13:13:46;;;;;;;7.22;5.10;;;2.10;99.90;;;;;;5067266;28;36052;-55